Observation data for Northwest San Angelo on 05/27/2019      Previous  Date  Next       Current Mesonet Observations  Soil Data  Daily Summary Page  Observations in Plain Language
KASU 270500Z 13008KT 25/18 A299 RMK A01 T02460177  RH  069%=      5-min Rain = 0
KASU 270505Z 13008KT 24/18 A299 RMK A01 T02440176  RH  069%=      5-min Rain = 0
KASU 270510Z 14008KT 24/18 A299 RMK A01 T02440176  RH  069%=      5-min Rain = 0
KASU 270515Z 14008KT 24/18 A299 RMK A01 T02430176  RH  070%=      5-min Rain = 0
KASU 270520Z 14008KT 24/18 A2989 RMK A01 T02430176  RH  070%=      5-min Rain = 0
KASU 270525Z 14009KT 24/18 A2989 RMK A01 T02430176  RH  070%=      5-min Rain = 0
KASU 270530Z 15008KT 24/18 A2989 RMK A01 T02410176  RH  071%=      5-min Rain = 0
KASU 270535Z 15009KT 24/18 A2989 RMK A01 T02390176  RH  072%=      5-min Rain = 0
KASU 270540Z 15009KT 24/18 A2989 RMK A01 T02400177  RH  071%=      5-min Rain = 0
KASU 270545Z 16009KT 24/18 A2989 RMK A01 T02410177  RH  071%=      5-min Rain = 0
KASU 270550Z 16010G15KT 24/18 A2989 RMK A01 T02430177  RH  070%=      5-min Rain = 0
KASU 270555Z 16010KT 24/18 A2989 RMK A01 T02430177  RH  070%=      5-min Rain = 0
KASU 270600Z 16010G15KT 24/18 A2989 RMK A01 T02440177  RH  070%=      5-min Rain = 0
KASU 270605Z 16008KT 24/18 A2989 RMK A01 T02430177  RH  070%=      5-min Rain = 0
KASU 270610Z 16008KT 24/18 A2989 RMK A01 T02410177  RH  071%=      5-min Rain = 0
KASU 270615Z 16010KT 24/18 A2989 RMK A01 T02420178  RH  071%=      5-min Rain = 0
KASU 270620Z 16009KT 24/18 A2989 RMK A01 T02420178  RH  071%=      5-min Rain = 0
KASU 270625Z 16009G14KT 24/18 A2989 RMK A01 T02420178  RH  071%=      5-min Rain = 0
KASU 270630Z 16008KT 24/18 A2989 RMK A01 T02400178  RH  072%=      5-min Rain = 0
KASU 270635Z 16009KT 24/18 A2988 RMK A01 T02390178  RH  073%=      5-min Rain = 0
KASU 270640Z 16007KT 24/18 A2988 RMK A01 T02380178  RH  073%=      5-min Rain = 0
KASU 270645Z 16007KT 24/18 A2988 RMK A01 T02360178  RH  074%=      5-min Rain = 0
KASU 270650Z 16008KT 24/18 A2988 RMK A01 T02360179  RH  074%=      5-min Rain = 0
KASU 270655Z 15008KT 24/18 A2988 RMK A01 T02360179  RH  074%=      5-min Rain = 0
KASU 270700Z 16008KT 24/18 A2988 RMK A01 T02350179  RH  074%=      5-min Rain = 0
KASU 270705Z 16009KT 24/18 A2988 RMK A01 T02350179  RH  075%=      5-min Rain = 0
KASU 270710Z 16009KT 24/18 A2988 RMK A01 T02350179  RH  075%=      5-min Rain = 0
KASU 270715Z 16009KT 23/18 A2988 RMK A01 T02340179  RH  075%=      5-min Rain = 0
KASU 270720Z 16009KT 23/18 A2988 RMK A01 T02330179  RH  075%=      5-min Rain = 0
KASU 270725Z 16009G14KT 23/18 A2988 RMK A01 T02330179  RH  075%=      5-min Rain = 0
KASU 270730Z 17008G13KT 23/18 A2988 RMK A01 T02330178  RH  075%=      5-min Rain = 0
KASU 270735Z 16007KT 23/18 A2988 RMK A01 T02320178  RH  076%=      5-min Rain = 0
KASU 270740Z 16009G16KT 23/18 A2987 RMK A01 T02310178  RH  076%=      5-min Rain = 0
KASU 270745Z 16010G15KT 23/18 A2987 RMK A01 T02320178  RH  075%=      5-min Rain = 0
KASU 270750Z 15009KT 23/18 A2987 RMK A01 T02320177  RH  075%=      5-min Rain = 0
KASU 270755Z 15008KT 23/18 A2987 RMK A01 T02290177  RH  076%=      5-min Rain = 0
KASU 270800Z 15009KT 23/18 A2987 RMK A01 T02290177  RH  076%=      5-min Rain = 0
KASU 270805Z 16011KT 23/18 A2987 RMK A01 T02300176  RH  076%=      5-min Rain = 0
KASU 270810Z 16011G17KT 23/18 A2987 RMK A01 T02300176  RH  075%=      5-min Rain = 0
KASU 270815Z 16012G17KT 23/18 A2987 RMK A01 T02300175  RH  075%=      5-min Rain = 0
KASU 270820Z 16012G19KT 23/18 A2986 RMK A01 T02300175  RH  075%=      5-min Rain = 0
KASU 270825Z 16012KT 23/17 A2986 RMK A01 T02290174  RH  075%=      5-min Rain = 0
KASU 270830Z 17013G18KT 23/17 A2986 RMK A01 T02290173  RH  075%=      5-min Rain = 0
KASU 270835Z 17012G17KT 23/17 A2986 RMK A01 T02280173  RH  075%=      5-min Rain = 0
KASU 270840Z 17014G20KT 23/17 A2986 RMK A01 T02280173  RH  075%=      5-min Rain = 0
KASU 270845Z 17014KT 23/17 A2986 RMK A01 T02280173  RH  074%=      5-min Rain = 0
KASU 270850Z 16012KT 23/17 A2986 RMK A01 T02270172  RH  075%=      5-min Rain = 0
KASU 270855Z 17011KT 23/17 A2986 RMK A01 T02260172  RH  075%=      5-min Rain = 0
KASU 270900Z 16011KT 23/17 A2986 RMK A01 T02250172  RH  076%=      5-min Rain = 0
KASU 270905Z 17011G17KT 22/17 A2986 RMK A01 T02240172  RH  076%=      5-min Rain = 0
KASU 270910Z 16010G16KT 22/17 A2987 RMK A01 T02230171  RH  076%=      5-min Rain = 0
KASU 270915Z 16012G19KT 22/17 A2987 RMK A01 T02240171  RH  076%=      5-min Rain = 0
KASU 270920Z 16010G16KT 23/17 A2987 RMK A01 T02250171  RH  075%=      5-min Rain = 0
KASU 270925Z 16011G16KT 22/17 A2987 RMK A01 T02240170  RH  075%=      5-min Rain = 0
KASU 270930Z 16013G18KT 22/17 A2987 RMK A01 T02230169  RH  075%=      5-min Rain = 0
KASU 270935Z 16011G18KT 22/17 A2987 RMK A01 T02230169  RH  075%=      5-min Rain = 0
KASU 270940Z 16011G16KT 22/17 A2987 RMK A01 T02230169  RH  075%=      5-min Rain = 0
KASU 270945Z 16009KT 22/17 A2987 RMK A01 T02220168  RH  075%=      5-min Rain = 0
KASU 270950Z 16010KT 22/17 A2988 RMK A01 T02210168  RH  075%=      5-min Rain = 0
KASU 270955Z 16009G16KT 22/17 A2988 RMK A01 T02210167  RH  075%=      5-min Rain = 0
KASU 271000Z 16010G16KT 22/17 A2988 RMK A01 T02210167  RH  075%=      5-min Rain = 0
KASU 271005Z 16012KT 22/17 A2988 RMK A01 T02210166  RH  075%=      5-min Rain = 0
KASU 271010Z 16012G17KT 22/17 A2988 RMK A01 T02200165  RH  075%=      5-min Rain = 0
KASU 271015Z 16011KT 22/17 A2988 RMK A01 T02190165  RH  075%=      5-min Rain = 0
KASU 271020Z 16010KT 22/17 A2988 RMK A01 T02190165  RH  075%=      5-min Rain = 0
KASU 271025Z 15011G18KT 22/17 A2988 RMK A01 T02180165  RH  076%=      5-min Rain = 0
KASU 271030Z 16010G15KT 22/16 A2988 RMK A01 T02170164  RH  076%=      5-min Rain = 0
KASU 271035Z 16010G15KT 22/16 A2988 RMK A01 T02160164  RH  076%=      5-min Rain = 0
KASU 271040Z 16009KT 22/16 A2988 RMK A01 T02160163  RH  076%=      5-min Rain = 0
KASU 271045Z 15007KT 22/16 A2989 RMK A01 T02150163  RH  076%=      5-min Rain = 0
KASU 271050Z 17006G12KT 22/16 A299 RMK A01 T02150163  RH  076%=      5-min Rain = 0
KASU 271055Z 21006G11KT 22/16 A2991 RMK A01 T02160162  RH  075%=      5-min Rain = 0
KASU 271100Z 22006G12KT 22/16 A2992 RMK A01 T02170162  RH  074%=      5-min Rain = 0
KASU 271105Z 18007KT 22/16 A2991 RMK A01 T02160162  RH  075%=      5-min Rain = 0
KASU 271110Z 16009KT 22/16 A2991 RMK A01 T02150161  RH  075%=      5-min Rain = 0
KASU 271115Z 18006G11KT 22/16 A2992 RMK A01 T02150161  RH  075%=      5-min Rain = 0
KASU 271120Z 18004KT 22/16 A2992 RMK A01 T02150161  RH  075%=      5-min Rain = 0
KASU 271125Z 16006KT 21/16 A2992 RMK A01 T02140162  RH  076%=      5-min Rain = 0
KASU 271130Z 17004KT 21/16 A2993 RMK A01 T02130162  RH  076%=      5-min Rain = 0
KASU 271135Z 15004KT 21/16 A2993 RMK A01 T02130162  RH  076%=      5-min Rain = 0
KASU 271140Z 16006KT 21/16 A2992 RMK A01 T02130161  RH  076%=      5-min Rain = 0
KASU 271145Z 16006KT 21/16 A2993 RMK A01 T02130161  RH  075%=      5-min Rain = 0
KASU 271150Z 17005KT 21/16 A2993 RMK A01 T02130161  RH  076%=      5-min Rain = 0
KASU 271155Z 16007G12KT 21/16 A2993 RMK A01 T02130161  RH  076%=      5-min Rain = 0
KASU 271200Z 16007KT 21/16 A2992 RMK A01 T02120160  RH  075%=      5-min Rain = 0
KASU 271205Z 15008KT 21/16 A2993 RMK A01 T02120159  RH  075%=      5-min Rain = 0
KASU 271210Z 15009KT 21/16 A2993 RMK A01 T02120159  RH  075%=      5-min Rain = 0
KASU 271215Z 15007KT 21/16 A2993 RMK A01 T02110159  RH  075%=      5-min Rain = 0
KASU 271220Z 15007KT 21/16 A2993 RMK A01 T02110158  RH  075%=      5-min Rain = 0
KASU 271225Z 15006KT 21/16 A2993 RMK A01 T02120158  RH  075%=      5-min Rain = 0
KASU 271230Z 15007KT 21/16 A2993 RMK A01 T02130157  RH  074%=      5-min Rain = 0
KASU 271235Z 15010KT 21/16 A2993 RMK A01 T02140156  RH  073%=      5-min Rain = 0
KASU 271240Z 16009G14KT 21/16 A2993 RMK A01 T02140155  RH  072%=      5-min Rain = 0
KASU 271245Z 15009KT 21/16 A2992 RMK A01 T02140155  RH  072%=      5-min Rain = 0
KASU 271250Z 15009KT 21/15 A2993 RMK A01 T02130154  RH  072%=      5-min Rain = 0
KASU 271255Z 15008G13KT 22/16 A2993 RMK A01 T02170155  RH  071%=      5-min Rain = 0
KASU 271300Z 15009KT 22/15 A2993 RMK A01 T02180154  RH  070%=      5-min Rain = 0
KASU 271305Z 15008KT 22/15 A2993 RMK A01 T02160153  RH  070%=      5-min Rain = 0
KASU 271310Z 15009KT 22/15 A2993 RMK A01 T02160152  RH  070%=      5-min Rain = 0
KASU 271315Z 16009KT 22/15 A2993 RMK A01 T02160152  RH  070%=      5-min Rain = 0
KASU 271320Z 16009KT 22/15 A2994 RMK A01 T02150151  RH  070%=      5-min Rain = 0
KASU 271325Z 15010KT 22/15 A2994 RMK A01 T02160152  RH  070%=      5-min Rain = 0
KASU 271330Z 15010KT 22/15 A2993 RMK A01 T02190153  RH  069%=      5-min Rain = 0
KASU 271335Z 15010KT 22/15 A2994 RMK A01 T02220154  RH  068%=      5-min Rain = 0
KASU 271340Z 15010KT 22/15 A2994 RMK A01 T02230154  RH  068%=      5-min Rain = 0
KASU 271345Z 15010G15KT 22/15 A2993 RMK A01 T02240154  RH  068%=      5-min Rain = 0
KASU 271350Z 16010KT 23/16 A2994 RMK A01 T02250155  RH  068%=      5-min Rain = 0
KASU 271355Z 15010KT 23/16 A2993 RMK A01 T02250155  RH  067%=      5-min Rain = 0
KASU 271400Z 16011KT 23/16 A2993 RMK A01 T02260155  RH  067%=      5-min Rain = 0
KASU 271405Z 15010KT 23/16 A2993 RMK A01 T02270155  RH  067%=      5-min Rain = 0
KASU 271410Z 16011KT 23/16 A2993 RMK A01 T02290156  RH  066%=      5-min Rain = 0
KASU 271415Z 17010G15KT 23/16 A2993 RMK A01 T02310156  RH  066%=      5-min Rain = 0
KASU 271420Z 16011G16KT 23/16 A2993 RMK A01 T02310156  RH  065%=      5-min Rain = 0
KASU 271425Z 17011KT 23/16 A2992 RMK A01 T02330157  RH  065%=      5-min Rain = 0
KASU 271430Z 16012KT 23/16 A2992 RMK A01 T02330156  RH  065%=      5-min Rain = 0
KASU 271435Z 17011KT 23/16 A2993 RMK A01 T02340156  RH  065%=      5-min Rain = 0
KASU 271440Z 16012KT 24/16 A2993 RMK A01 T02350156  RH  064%=      5-min Rain = 0
KASU 271445Z 16011G16KT 24/16 A2993 RMK A01 T02370157  RH  064%=      5-min Rain = 0
KASU 271450Z 16011G17KT 24/16 A2992 RMK A01 T02390157  RH  063%=      5-min Rain = 0
KASU 271455Z 16010KT 24/16 A2992 RMK A01 T02400157  RH  063%=      5-min Rain = 0
KASU 271500Z 17010KT 24/16 A2992 RMK A01 T02420157  RH  062%=      5-min Rain = 0
KASU 271505Z 17010G15KT 24/16 A2992 RMK A01 T02440159  RH  062%=      5-min Rain = 0
KASU 271510Z 17011G16KT 25/16 A2992 RMK A01 T02460157  RH  061%=      5-min Rain = 0
KASU 271515Z 17011G16KT 25/16 A2992 RMK A01 T02450156  RH  060%=      5-min Rain = 0
KASU 271520Z 17009KT 25/16 A2992 RMK A01 T02490159  RH  060%=      5-min Rain = 0
KASU 271525Z 17011KT 25/16 A2992 RMK A01 T02490158  RH  060%=      5-min Rain = 0
KASU 271530Z 17011G18KT 25/16 A2992 RMK A01 T02500160  RH  060%=      5-min Rain = 0
KASU 271535Z 17012G17KT 25/16 A2992 RMK A01 T02540161  RH  059%=      5-min Rain = 0
KASU 271540Z 18012G17KT 25/16 A2992 RMK A01 T02540160  RH  059%=      5-min Rain = 0
KASU 271545Z 17011G18KT 26/16 A2991 RMK A01 T02550161  RH  059%=      5-min Rain = 0
KASU 271550Z 17014KT 26/16 A2991 RMK A01 T02560161  RH  058%=      5-min Rain = 0
KASU 271555Z 18012G17KT 26/16 A2991 RMK A01 T02560160  RH  058%=      5-min Rain = 0
KASU 271600Z 17011G16KT 26/16 A2991 RMK A01 T02570162  RH  058%=      5-min Rain = 0
KASU 271605Z 17011KT 26/17 A2991 RMK A01 T02610165  RH  058%=      5-min Rain = 0
KASU 271610Z 18013G19KT 26/16 A2991 RMK A01 T02610163  RH  058%=      5-min Rain = 0
KASU 271615Z 17012G18KT 27/17 A2991 RMK A01 T02650166  RH  057%=      5-min Rain = 0
KASU 271620Z 16010G16KT 27/17 A2991 RMK A01 T02650167  RH  058%=      5-min Rain = 0
KASU 271625Z 18013G19KT 26/16 A2991 RMK A01 T02630164  RH  057%=      5-min Rain = 0
KASU 271630Z 19013G20KT 26/16 A299 RMK A01 T02630164  RH  057%=      5-min Rain = 0
KASU 271635Z 18012KT 27/17 A299 RMK A01 T02670167  RH  057%=      5-min Rain = 0
KASU 271640Z 17012KT 27/17 A299 RMK A01 T02660167  RH  058%=      5-min Rain = 0
KASU 271645Z 17013KT 27/17 A299 RMK A01 T02660167  RH  058%=      5-min Rain = 0
KASU 271650Z 17013G18KT 27/17 A2989 RMK A01 T02670167  RH  057%=      5-min Rain = 0
KASU 271655Z 18013KT 27/17 A2989 RMK A01 T02690170  RH  057%=      5-min Rain = 0
KASU 271700Z 18015KT 27/17 A2989 RMK A01 T02690167  RH  056%=      5-min Rain = 0
KASU 271705Z 16012KT 27/17 A2989 RMK A01 T02710172  RH  057%=      5-min Rain = 0
KASU 271710Z 18013KT 28/17 A2989 RMK A01 T02760173  RH  056%=      5-min Rain = 0
KASU 271715Z 18013G18KT 28/17 A2989 RMK A01 T02750174  RH  057%=      5-min Rain = 0
KASU 271720Z 18013G20KT 28/18 A2989 RMK A01 T02760175  RH  057%=      5-min Rain = 0
KASU 271725Z 17014KT 28/18 A2989 RMK A01 T02750176  RH  057%=      5-min Rain = 0
KASU 271730Z 18012KT 28/18 A2989 RMK A01 T02810180  RH  057%=      5-min Rain = 0
KASU 271735Z 17011G16KT 28/18 A2989 RMK A01 T02810180  RH  057%=      5-min Rain = 0
KASU 271740Z 17012G17KT 28/18 A2989 RMK A01 T02800182  RH  058%=      5-min Rain = 0
KASU 271745Z 19013KT 28/18 A2988 RMK A01 T02840179  RH  056%=      5-min Rain = 0
KASU 271750Z 17013G19KT 28/18 A2988 RMK A01 T02830181  RH  057%=      5-min Rain = 0
KASU 271755Z 16013G18KT 28/19 A2988 RMK A01 T02830185  RH  058%=      5-min Rain = 0
KASU 271800Z 19012G17KT 29/18 A2988 RMK A01 T02860182  RH  056%=      5-min Rain = 0
KASU 271805Z 19014KT 29/18 A2988 RMK A01 T02870183  RH  056%=      5-min Rain = 0
KASU 271810Z 19012G18KT 29/19 A2987 RMK A01 T02880185  RH  057%=      5-min Rain = 0
KASU 271815Z 17012KT 29/19 A2987 RMK A01 T02880186  RH  057%=      5-min Rain = 0
KASU 271820Z 18010G15KT 29/19 A2987 RMK A01 T02900187  RH  057%=      5-min Rain = 0
KASU 271825Z 16010KT 29/19 A2987 RMK A01 T02890188  RH  057%=      5-min Rain = 0
KASU 271830Z 18012G18KT 29/19 A2986 RMK A01 T02930189  RH  057%=      5-min Rain = 0
KASU 271835Z 17011G18KT 30/19 A2986 RMK A01 T02960191  RH  056%=      5-min Rain = 0
KASU 271840Z 16010KT 29/19 A2986 RMK A01 T02920188  RH  057%=      5-min Rain = 0
KASU 271845Z 17010KT 29/19 A2986 RMK A01 T02940191  RH  057%=      5-min Rain = 0
KASU 271850Z 18012KT 30/19 A2985 RMK A01 T02980191  RH  056%=      5-min Rain = 0
KASU 271855Z 18011KT 30/19 A2985 RMK A01 T03020193  RH  055%=      5-min Rain = 0
KASU 271900Z 18011KT 30/19 A2985 RMK A01 T03010192  RH  055%=      5-min Rain = 0
KASU 271905Z 17012KT 30/19 A2985 RMK A01 T02950189  RH  056%=      5-min Rain = 0
KASU 271910Z 17011KT 30/19 A2985 RMK A01 T02960189  RH  056%=      5-min Rain = 0
KASU 271915Z 19009G14KT 30/19 A2984 RMK A01 T03000192  RH  055%=      5-min Rain = 0
KASU 271920Z 18009KT 30/19 A2984 RMK A01 T03020193  RH  055%=      5-min Rain = 0
KASU 271925Z 17007G12KT 30/19 A2984 RMK A01 T02990193  RH  056%=      5-min Rain = 0
KASU 271930Z 18010G17KT 30/19 A2984 RMK A01 T03010193  RH  056%=      5-min Rain = 0
KASU 271935Z 18010KT 30/19 A2984 RMK A01 T03020189  RH  054%=      5-min Rain = 0
KASU 271940Z 19010G16KT 31/19 A2984 RMK A01 T03050189  RH  053%=      5-min Rain = 0
KASU 271945Z 19007G13KT 31/19 A2984 RMK A01 T03080192  RH  053%=      5-min Rain = 0
KASU 271950Z 18012KT 31/19 A2983 RMK A01 T03070191  RH  053%=      5-min Rain = 0
KASU 271955Z 17010KT 30/19 A2983 RMK A01 T03030191  RH  054%=      5-min Rain = 0
KASU 272000Z 17010KT 30/19 A2982 RMK A01 T03040193  RH  055%=      5-min Rain = 0
KASU 272005Z 16012G17KT 31/19 A2982 RMK A01 T03070194  RH  054%=      5-min Rain = 0
KASU 272010Z 15012G19KT 30/19 A2982 RMK A01 T03030191  RH  054%=      5-min Rain = 0
KASU 272015Z 19011KT 31/19 A2981 RMK A01 T03090191  RH  052%=      5-min Rain = 0
KASU 272020Z 18012G17KT 31/19 A2981 RMK A01 T03120191  RH  051%=      5-min Rain = 0
KASU 272025Z 17011G17KT 31/19 A2981 RMK A01 T03120190  RH  051%=      5-min Rain = 0
KASU 272030Z 19014KT 31/19 A2981 RMK A01 T03120186  RH  050%=      5-min Rain = 0
KASU 272035Z 18011G17KT 31/19 A2981 RMK A01 T03140189  RH  050%=      5-min Rain = 0
KASU 272040Z 17012KT 31/19 A298 RMK A01 T03130191  RH  051%=      5-min Rain = 0
KASU 272045Z 19012G18KT 31/19 A298 RMK A01 T03130188  RH  050%=      5-min Rain = 0
KASU 272050Z 18011G19KT 32/19 A298 RMK A01 T03160191  RH  050%=      5-min Rain = 0
KASU 272055Z 18011G16KT 32/19 A298 RMK A01 T03150187  RH  049%=      5-min Rain = 0
KASU 272100Z 18012KT 31/19 A2979 RMK A01 T03130186  RH  049%=      5-min Rain = 0
KASU 272105Z 19013G20KT 32/19 A2979 RMK A01 T03170187  RH  049%=      5-min Rain = 0
KASU 272110Z 18012KT 32/19 A2979 RMK A01 T03160189  RH  049%=      5-min Rain = 0
KASU 272115Z 17009G15KT 32/19 A2979 RMK A01 T03160193  RH  051%=      5-min Rain = 0
KASU 272120Z 18014KT 32/19 A2979 RMK A01 T03190188  RH  049%=      5-min Rain = 0
KASU 272125Z 18013G18KT 31/19 A2979 RMK A01 T03140186  RH  049%=      5-min Rain = 0
KASU 272130Z 17013KT 32/19 A2978 RMK A01 T03170187  RH  049%=      5-min Rain = 0
KASU 272135Z 18013G18KT 32/19 A2978 RMK A01 T03160188  RH  049%=      5-min Rain = 0
KASU 272140Z 18013G18KT 32/19 A2978 RMK A01 T03170187  RH  049%=      5-min Rain = 0
KASU 272145Z 18012G17KT 32/19 A2977 RMK A01 T03190190  RH  049%=      5-min Rain = 0
KASU 272150Z 17014G19KT 32/19 A2978 RMK A01 T03160187  RH  049%=      5-min Rain = 0
KASU 272155Z 18014KT 32/18 A2977 RMK A01 T03160184  RH  048%=      5-min Rain = 0
KASU 272200Z 18013KT 32/19 A2977 RMK A01 T03160187  RH  049%=      5-min Rain = 0
KASU 272205Z 17012G17KT 32/19 A2977 RMK A01 T03160188  RH  049%=      5-min Rain = 0
KASU 272210Z 17013G18KT 32/19 A2976 RMK A01 T03160186  RH  049%=      5-min Rain = 0
KASU 272215Z 17011KT 32/19 A2976 RMK A01 T03170188  RH  049%=      5-min Rain = 0
KASU 272220Z 17013G20KT 32/19 A2976 RMK A01 T03150185  RH  049%=      5-min Rain = 0
KASU 272225Z 16012G18KT 32/19 A2976 RMK A01 T03150186  RH  049%=      5-min Rain = 0
KASU 272230Z 16012G17KT 31/19 A2976 RMK A01 T03140186  RH  049%=      5-min Rain = 0
KASU 272235Z 17011G17KT 32/19 A2976 RMK A01 T03170185  RH  048%=      5-min Rain = 0
KASU 272240Z 17013G19KT 32/18 A2975 RMK A01 T03170183  RH  047%=      5-min Rain = 0
KASU 272245Z 17011KT 32/18 A2975 RMK A01 T03170184  RH  048%=      5-min Rain = 0
KASU 272250Z 16012G19KT 32/19 A2975 RMK A01 T03160186  RH  049%=      5-min Rain = 0
KASU 272255Z 15014G20KT 31/18 A2975 RMK A01 T03140182  RH  048%=      5-min Rain = 0
KASU 272300Z 15014KT 31/18 A2975 RMK A01 T03140181  RH  048%=      5-min Rain = 0
KASU 272305Z 17014G19KT 31/18 A2975 RMK A01 T03140179  RH  047%=      5-min Rain = 0
KASU 272310Z 16013G18KT 31/18 A2975 RMK A01 T03140179  RH  047%=      5-min Rain = 0
KASU 272315Z 17012G17KT 31/18 A2974 RMK A01 T03140179  RH  047%=      5-min Rain = 0
KASU 272320Z 17014G20KT 31/18 A2974 RMK A01 T03140178  RH  047%=      5-min Rain = 0
KASU 272325Z 17011KT 31/18 A2974 RMK A01 T03140180  RH  047%=      5-min Rain = 0
KASU 272330Z 16013KT 31/18 A2974 RMK A01 T03130178  RH  047%=      5-min Rain = 0
KASU 272335Z 17013G19KT 31/18 A2974 RMK A01 T03120178  RH  047%=      5-min Rain = 0
KASU 272340Z 17013KT 31/18 A2974 RMK A01 T03120179  RH  047%=      5-min Rain = 0
KASU 272345Z 17013G18KT 31/18 A2974 RMK A01 T03110177  RH  047%=      5-min Rain = 0
KASU 272350Z 17011G16KT 31/18 A2974 RMK A01 T03110178  RH  048%=      5-min Rain = 0
KASU 272355Z 17010KT 31/18 A2974 RMK A01 T03100180  RH  049%=      5-min Rain = 0
KASU 280000Z 16014G20KT 31/18 A2974 RMK A01 T03080178  RH  048%=      5-min Rain = 0
KASU 280005Z 16012G19KT 31/18 A2974 RMK A01 T03070180  RH  049%=      5-min Rain = 0
KASU 280010Z 17011G17KT 31/18 A2974 RMK A01 T03060180  RH  049%=      5-min Rain = 0
KASU 280015Z 16013G19KT 31/18 A2974 RMK A01 T03050179  RH  049%=      5-min Rain = 0
KASU 280020Z 16012G18KT 30/18 A2973 RMK A01 T03040181  RH  051%=      5-min Rain = 0
KASU 280025Z 16014G19KT 30/18 A2973 RMK A01 T03030181  RH  051%=      5-min Rain = 0
KASU 280030Z 16013G19KT 30/18 A2973 RMK A01 T03020181  RH  051%=      5-min Rain = 0
KASU 280035Z 15012KT 30/18 A2973 RMK A01 T03000182  RH  052%=      5-min Rain = 0
KASU 280040Z 16012G19KT 30/18 A2973 RMK A01 T02990182  RH  052%=      5-min Rain = 0
KASU 280045Z 15012G19KT 30/18 A2973 RMK A01 T02980181  RH  052%=      5-min Rain = 0
KASU 280050Z 15013KT 30/18 A2973 RMK A01 T02960180  RH  052%=      5-min Rain = 0
KASU 280055Z 16012G17KT 30/18 A2973 RMK A01 T02950179  RH  052%=      5-min Rain = 0
KASU 280100Z 15012G20KT 29/18 A2973 RMK A01 T02940179  RH  053%=      5-min Rain = 0
KASU 280105Z 15012G18KT 29/18 A2973 RMK A01 T02930179  RH  053%=      5-min Rain = 0
KASU 280110Z 15011G18KT 29/18 A2973 RMK A01 T02900179  RH  054%=      5-min Rain = 0
KASU 280115Z 15012KT 29/18 A2973 RMK A01 T02890179  RH  054%=      5-min Rain = 0
KASU 280120Z 16012G17KT 29/18 A2973 RMK A01 T02890178  RH  054%=      5-min Rain = 0
KASU 280125Z 16012KT 29/18 A2973 RMK A01 T02870178  RH  054%=      5-min Rain = 0
KASU 280130Z 16009G14KT 28/18 A2973 RMK A01 T02840178  RH  055%=      5-min Rain = 0
KASU 280135Z 15010G17KT 28/18 A2973 RMK A01 T02820179  RH  056%=      5-min Rain = 0
KASU 280140Z 15011G16KT 28/18 A2973 RMK A01 T02810179  RH  057%=      5-min Rain = 0
KASU 280145Z 15011G17KT 28/18 A2973 RMK A01 T02810178  RH  057%=      5-min Rain = 0
KASU 280150Z 15011G16KT 28/18 A2973 RMK A01 T02800177  RH  056%=      5-min Rain = 0
KASU 280155Z 15011KT 28/18 A2973 RMK A01 T02770177  RH  057%=      5-min Rain = 0
KASU 280200Z 14010G16KT 28/18 A2973 RMK A01 T02760178  RH  058%=      5-min Rain = 0
KASU 280205Z 15010KT 28/18 A2974 RMK A01 T02760177  RH  058%=      5-min Rain = 0
KASU 280210Z 15010KT 27/18 A2974 RMK A01 T02740177  RH  059%=      5-min Rain = 0
KASU 280215Z 14011KT 27/18 A2974 RMK A01 T02730177  RH  059%=      5-min Rain = 0
KASU 280220Z 14011KT 27/18 A2974 RMK A01 T02740176  RH  058%=      5-min Rain = 0
KASU 280225Z 14011G16KT 27/18 A2974 RMK A01 T02730176  RH  058%=      5-min Rain = 0
KASU 280230Z 14011G16KT 27/18 A2974 RMK A01 T02730176  RH  058%=      5-min Rain = 0
KASU 280235Z 14010KT 27/18 A2974 RMK A01 T02710176  RH  059%=      5-min Rain = 0
KASU 280240Z 13011KT 27/18 A2974 RMK A01 T02710175  RH  059%=      5-min Rain = 0
KASU 280245Z 13010KT 27/18 A2974 RMK A01 T02690175  RH  059%=      5-min Rain = 0
KASU 280250Z 13010G15KT 27/18 A2974 RMK A01 T02670176  RH  060%=      5-min Rain = 0
KASU 280255Z 13011G16KT 27/18 A2974 RMK A01 T02670177  RH  061%=      5-min Rain = 0
KASU 280300Z 13012KT 27/18 A2974 RMK A01 T02670178  RH  061%=      5-min Rain = 0
KASU 280305Z 13012KT 27/18 A2974 RMK A01 T02670178  RH  061%=      5-min Rain = 0
KASU 280310Z 13013G22KT 27/18 A2974 RMK A01 T02670177  RH  061%=      5-min Rain = 0
KASU 280315Z 13011G16KT 27/18 A2974 RMK A01 T02660177  RH  061%=      5-min Rain = 0
KASU 280320Z 13011KT 26/18 A2974 RMK A01 T02640177  RH  062%=      5-min Rain = 0
KASU 280325Z 13012KT 26/18 A2974 RMK A01 T02630176  RH  062%=      5-min Rain = 0
KASU 280330Z 14011KT 26/18 A2974 RMK A01 T02620176  RH  062%=      5-min Rain = 0
KASU 280335Z 13012KT 26/18 A2974 RMK A01 T02630176  RH  062%=      5-min Rain = 0
KASU 280340Z 14013KT 26/18 A2974 RMK A01 T02610175  RH  062%=      5-min Rain = 0
KASU 280345Z 14011G17KT 26/18 A2974 RMK A01 T02610175  RH  062%=      5-min Rain = 0
KASU 280350Z 13012KT 26/18 A2974 RMK A01 T02590175  RH  063%=      5-min Rain = 0
KASU 280355Z 14011G16KT 26/17 A2974 RMK A01 T02590174  RH  062%=      5-min Rain = 0
KASU 280400Z 14012KT 26/17 A2974 RMK A01 T02580174  RH  063%=      5-min Rain = 0
KASU 280405Z 14011KT 26/17 A2974 RMK A01 T02560174  RH  063%=      5-min Rain = 0
KASU 280410Z 14012KT 26/17 A2974 RMK A01 T02560173  RH  063%=      5-min Rain = 0
KASU 280415Z 14011G16KT 26/17 A2974 RMK A01 T02580172  RH  062%=      5-min Rain = 0
KASU 280420Z 14011KT 25/17 A2974 RMK A01 T02540172  RH  063%=      5-min Rain = 0
KASU 280425Z 14012KT 26/17 A2974 RMK A01 T02550171  RH  063%=      5-min Rain = 0
KASU 280430Z 13012G17KT 26/17 A2974 RMK A01 T02560169  RH  062%=      5-min Rain = 0
KASU 280435Z 14011KT 26/17 A2974 RMK A01 T02550169  RH  062%=      5-min Rain = 0
KASU 280440Z 14011KT 25/17 A2974 RMK A01 T02530169  RH  062%=      5-min Rain = 0
KASU 280445Z 13011KT 25/17 A2974 RMK A01 T02530168  RH  062%=      5-min Rain = 0
KASU 280450Z 13011KT 25/17 A2974 RMK A01 T02510168  RH  063%=      5-min Rain = 0
KASU 280455Z 13011KT 25/17 A2974 RMK A01 T02500168  RH  064%=      5-min Rain = 0

Page generated in 0.0337 seconds.